sensor_id;sensor_type;location;lat;lon;timestamp;P1;durP1;ratioP1;P2;durP2;ratioP2
46290;SDS011;32023;44.444;26.006;2023-04-03T00:01:55;22.85;;;18.85;;
46290;SDS011;32023;44.444;26.006;2023-04-03T00:04:24;23.60;;;18.67;;
46290;SDS011;32023;44.444;26.006;2023-04-03T00:06:52;23.02;;;17.35;;
46290;SDS011;32023;44.444;26.006;2023-04-03T00:09:18;23.05;;;17.25;;
46290;SDS011;32023;44.444;26.006;2023-04-03T00:11:45;19.30;;;15.32;;
46290;SDS011;32023;44.444;26.006;2023-04-03T00:14:11;24.48;;;17.50;;
46290;SDS011;32023;44.444;26.006;2023-04-03T00:16:37;26.75;;;18.20;;
46290;SDS011;32023;44.444;26.006;2023-04-03T00:19:04;21.60;;;16.30;;
46290;SDS011;32023;44.444;26.006;2023-04-03T00:21:30;20.02;;;15.77;;
46290;SDS011;32023;44.444;26.006;2023-04-03T00:26:41;23.17;;;16.02;;
46290;SDS011;32023;44.444;26.006;2023-04-03T00:29:08;20.45;;;14.10;;
46290;SDS011;32023;44.444;26.006;2023-04-03T00:31:34;18.80;;;13.57;;
46290;SDS011;32023;44.444;26.006;2023-04-03T00:34:01;17.27;;;13.00;;
46290;SDS011;32023;44.444;26.006;2023-04-03T00:36:49;17.90;;;12.85;;
46290;SDS011;32023;44.444;26.006;2023-04-03T00:39:17;15.15;;;12.05;;
46290;SDS011;32023;44.444;26.006;2023-04-03T00:41:44;15.80;;;12.60;;
46290;SDS011;32023;44.444;26.006;2023-04-03T00:46:59;20.00;;;13.52;;
46290;SDS011;32023;44.444;26.006;2023-04-03T00:49:28;19.13;;;13.70;;
46290;SDS011;32023;44.444;26.006;2023-04-03T00:51:55;18.00;;;14.90;;
46290;SDS011;32023;44.444;26.006;2023-04-03T00:54:23;21.35;;;16.10;;
46290;SDS011;32023;44.444;26.006;2023-04-03T00:56:51;27.20;;;17.70;;
46290;SDS011;32023;44.444;26.006;2023-04-03T00:59:21;19.95;;;14.55;;
46290;SDS011;32023;44.444;26.006;2023-04-03T01:01:54;22.88;;;16.92;;
46290;SDS011;32023;44.444;26.006;2023-04-03T01:04:28;23.52;;;16.70;;
46290;SDS011;32023;44.444;26.006;2023-04-03T01:06:57;23.33;;;16.38;;
46290;SDS011;32023;44.444;26.006;2023-04-03T01:09:27;28.13;;;18.08;;
46290;SDS011;32023;44.444;26.006;2023-04-03T01:11:54;22.48;;;18.00;;
46290;SDS011;32023;44.444;26.006;2023-04-03T01:14:49;24.58;;;18.88;;
46290;SDS011;32023;44.444;26.006;2023-04-03T01:25:50;23.45;;;17.92;;
46290;SDS011;32023;44.444;26.006;2023-04-03T01:28:20;23.40;;;17.85;;
46290;SDS011;32023;44.444;26.006;2023-04-03T01:33:33;24.38;;;18.65;;
46290;SDS011;32023;44.444;26.006;2023-04-03T01:36:00;25.55;;;18.92;;
46290;SDS011;32023;44.444;26.006;2023-04-03T01:38:27;23.80;;;19.08;;
46290;SDS011;32023;44.444;26.006;2023-04-03T01:40:54;30.27;;;19.85;;
46290;SDS011;32023;44.444;26.006;2023-04-03T01:43:22;26.23;;;19.17;;
46290;SDS011;32023;44.444;26.006;2023-04-03T01:45:48;27.92;;;19.05;;
46290;SDS011;32023;44.444;26.006;2023-04-03T01:48:15;27.80;;;19.17;;
46290;SDS011;32023;44.444;26.006;2023-04-03T01:50:44;28.73;;;19.65;;
46290;SDS011;32023;44.444;26.006;2023-04-03T01:53:14;32.40;;;20.48;;
46290;SDS011;32023;44.444;26.006;2023-04-03T01:55:40;28.10;;;20.48;;
46290;SDS011;32023;44.444;26.006;2023-04-03T01:58:10;28.00;;;21.02;;
46290;SDS011;32023;44.444;26.006;2023-04-03T02:00:37;28.52;;;20.85;;
46290;SDS011;32023;44.444;26.006;2023-04-03T02:03:03;28.35;;;21.77;;
46290;SDS011;32023;44.444;26.006;2023-04-03T02:05:30;28.15;;;22.08;;
46290;SDS011;32023;44.444;26.006;2023-04-03T02:07:56;29.50;;;21.95;;
46290;SDS011;32023;44.444;26.006;2023-04-03T02:10:26;28.02;;;21.50;;
46290;SDS011;32023;44.444;26.006;2023-04-03T02:12:58;25.45;;;20.48;;
46290;SDS011;32023;44.444;26.006;2023-04-03T02:15:33;25.10;;;20.40;;
46290;SDS011;32023;44.444;26.006;2023-04-03T02:23:03;26.27;;;20.92;;
46290;SDS011;32023;44.444;26.006;2023-04-03T02:25:31;24.85;;;19.90;;
46290;SDS011;32023;44.444;26.006;2023-04-03T02:28:00;23.85;;;19.73;;
46290;SDS011;32023;44.444;26.006;2023-04-03T02:30:30;25.08;;;20.15;;
46290;SDS011;32023;44.444;26.006;2023-04-03T02:32:56;27.33;;;20.05;;
46290;SDS011;32023;44.444;26.006;2023-04-03T02:35:23;26.00;;;19.77;;
46290;SDS011;32023;44.444;26.006;2023-04-03T02:37:49;26.98;;;21.10;;
46290;SDS011;32023;44.444;26.006;2023-04-03T02:40:16;28.00;;;20.45;;
46290;SDS011;32023;44.444;26.006;2023-04-03T02:42:42;26.38;;;20.73;;
46290;SDS011;32023;44.444;26.006;2023-04-03T02:45:09;29.98;;;21.25;;
46290;SDS011;32023;44.444;26.006;2023-04-03T02:47:35;28.35;;;21.15;;
46290;SDS011;32023;44.444;26.006;2023-04-03T02:50:02;28.20;;;21.30;;
46290;SDS011;32023;44.444;26.006;2023-04-03T02:52:29;28.75;;;20.40;;
46290;SDS011;32023;44.444;26.006;2023-04-03T02:54:55;27.90;;;21.40;;
46290;SDS011;32023;44.444;26.006;2023-04-03T02:57:21;31.13;;;21.83;;
46290;SDS011;32023;44.444;26.006;2023-04-03T02:59:51;33.03;;;23.23;;
46290;SDS011;32023;44.444;26.006;2023-04-03T03:02:22;31.33;;;23.98;;
46290;SDS011;32023;44.444;26.006;2023-04-03T03:04:48;32.78;;;23.67;;
46290;SDS011;32023;44.444;26.006;2023-04-03T03:07:14;29.85;;;23.33;;
46290;SDS011;32023;44.444;26.006;2023-04-03T03:09:41;31.30;;;23.00;;
46290;SDS011;32023;44.444;26.006;2023-04-03T03:12:07;32.58;;;23.42;;
46290;SDS011;32023;44.444;26.006;2023-04-03T03:14:37;31.83;;;23.05;;
46290;SDS011;32023;44.444;26.006;2023-04-03T03:17:03;33.17;;;22.85;;
46290;SDS011;32023;44.444;26.006;2023-04-03T03:19:33;30.73;;;23.70;;
46290;SDS011;32023;44.444;26.006;2023-04-03T03:21:59;31.52;;;23.17;;
46290;SDS011;32023;44.444;26.006;2023-04-03T03:24:26;33.22;;;24.88;;
46290;SDS011;32023;44.444;26.006;2023-04-03T03:26:53;30.65;;;23.17;;
46290;SDS011;32023;44.444;26.006;2023-04-03T03:29:24;33.75;;;24.33;;
46290;SDS011;32023;44.444;26.006;2023-04-03T03:31:51;33.20;;;23.02;;
46290;SDS011;32023;44.444;26.006;2023-04-03T03:34:17;34.25;;;23.90;;
46290;SDS011;32023;44.444;26.006;2023-04-03T03:36:44;34.80;;;24.70;;
46290;SDS011;32023;44.444;26.006;2023-04-03T03:39:12;32.40;;;24.80;;
46290;SDS011;32023;44.444;26.006;2023-04-03T03:41:42;37.50;;;24.25;;
46290;SDS011;32023;44.444;26.006;2023-04-03T03:44:14;31.92;;;23.25;;
46290;SDS011;32023;44.444;26.006;2023-04-03T03:47:05;32.28;;;22.42;;
46290;SDS011;32023;44.444;26.006;2023-04-03T03:49:38;32.92;;;22.20;;
46290;SDS011;32023;44.444;26.006;2023-04-03T03:52:07;29.38;;;21.73;;
46290;SDS011;32023;44.444;26.006;2023-04-03T03:54:37;30.27;;;22.25;;
46290;SDS011;32023;44.444;26.006;2023-04-03T03:57:07;32.92;;;21.15;;
46290;SDS011;32023;44.444;26.006;2023-04-03T03:59:33;29.52;;;20.63;;
46290;SDS011;32023;44.444;26.006;2023-04-03T04:02:00;27.95;;;21.25;;
46290;SDS011;32023;44.444;26.006;2023-04-03T04:04:27;29.42;;;18.90;;
46290;SDS011;32023;44.444;26.006;2023-04-03T04:06:53;32.47;;;20.25;;
46290;SDS011;32023;44.444;26.006;2023-04-03T04:09:20;30.30;;;19.45;;
46290;SDS011;32023;44.444;26.006;2023-04-03T04:11:46;25.13;;;19.00;;
46290;SDS011;32023;44.444;26.006;2023-04-03T04:14:12;24.20;;;17.25;;
46290;SDS011;32023;44.444;26.006;2023-04-03T04:16:39;24.23;;;16.77;;
46290;SDS011;32023;44.444;26.006;2023-04-03T04:19:05;24.35;;;16.80;;
46290;SDS011;32023;44.444;26.006;2023-04-03T04:21:31;25.10;;;16.80;;
46290;SDS011;32023;44.444;26.006;2023-04-03T04:23:58;23.08;;;16.80;;
46290;SDS011;32023;44.444;26.006;2023-04-03T04:26:24;21.85;;;16.13;;
46290;SDS011;32023;44.444;26.006;2023-04-03T04:28:51;20.17;;;15.95;;
46290;SDS011;32023;44.444;26.006;2023-04-03T04:31:17;20.25;;;15.10;;
46290;SDS011;32023;44.444;26.006;2023-04-03T04:33:49;19.75;;;14.77;;
46290;SDS011;32023;44.444;26.006;2023-04-03T04:36:16;18.30;;;14.52;;
46290;SDS011;32023;44.444;26.006;2023-04-03T04:38:42;20.10;;;14.93;;
46290;SDS011;32023;44.444;26.006;2023-04-03T04:41:09;21.25;;;15.50;;
46290;SDS011;32023;44.444;26.006;2023-04-03T04:43:35;20.13;;;14.32;;
46290;SDS011;32023;44.444;26.006;2023-04-03T04:46:03;26.10;;;16.42;;
46290;SDS011;32023;44.444;26.006;2023-04-03T04:48:30;19.13;;;16.08;;
46290;SDS011;32023;44.444;26.006;2023-04-03T04:50:57;19.67;;;16.15;;
46290;SDS011;32023;44.444;26.006;2023-04-03T04:53:23;21.85;;;15.15;;
46290;SDS011;32023;44.444;26.006;2023-04-03T04:55:50;22.80;;;17.75;;
46290;SDS011;32023;44.444;26.006;2023-04-03T04:58:17;22.42;;;17.65;;
46290;SDS011;32023;44.444;26.006;2023-04-03T05:00:47;21.33;;;15.77;;
46290;SDS011;32023;44.444;26.006;2023-04-03T05:03:53;23.63;;;16.58;;
46290;SDS011;32023;44.444;26.006;2023-04-03T05:06:20;16.40;;;12.23;;
46290;SDS011;32023;44.444;26.006;2023-04-03T05:08:46;16.00;;;13.20;;
46290;SDS011;32023;44.444;26.006;2023-04-03T05:11:13;18.92;;;13.43;;
46290;SDS011;32023;44.444;26.006;2023-04-03T05:13:39;15.82;;;12.48;;
46290;SDS011;32023;44.444;26.006;2023-04-03T05:16:05;15.35;;;11.95;;
46290;SDS011;32023;44.444;26.006;2023-04-03T05:18:32;18.73;;;12.38;;
46290;SDS011;32023;44.444;26.006;2023-04-03T05:20:58;17.40;;;13.35;;
46290;SDS011;32023;44.444;26.006;2023-04-03T05:23:25;17.60;;;11.43;;
46290;SDS011;32023;44.444;26.006;2023-04-03T05:25:51;15.93;;;10.57;;
46290;SDS011;32023;44.444;26.006;2023-04-03T05:28:18;14.07;;;10.45;;
46290;SDS011;32023;44.444;26.006;2023-04-03T05:30:44;16.63;;;10.13;;
46290;SDS011;32023;44.444;26.006;2023-04-03T05:33:17;14.50;;;10.23;;
46290;SDS011;32023;44.444;26.006;2023-04-03T05:35:43;11.18;;;8.65;;
46290;SDS011;32023;44.444;26.006;2023-04-03T05:38:10;12.82;;;9.23;;
46290;SDS011;32023;44.444;26.006;2023-04-03T05:40:37;11.88;;;8.23;;
46290;SDS011;32023;44.444;26.006;2023-04-03T05:43:03;11.77;;;7.75;;
46290;SDS011;32023;44.444;26.006;2023-04-03T05:45:29;10.20;;;8.02;;
46290;SDS011;32023;44.444;26.006;2023-04-03T05:47:56;10.60;;;6.82;;
46290;SDS011;32023;44.444;26.006;2023-04-03T05:50:22;9.10;;;6.25;;
46290;SDS011;32023;44.444;26.006;2023-04-03T05:52:49;11.23;;;7.72;;
46290;SDS011;32023;44.444;26.006;2023-04-03T05:55:25;10.00;;;7.50;;
46290;SDS011;32023;44.444;26.006;2023-04-03T05:57:51;11.23;;;6.60;;
46290;SDS011;32023;44.444;26.006;2023-04-03T06:00:18;11.02;;;8.38;;
46290;SDS011;32023;44.444;26.006;2023-04-03T06:02:44;15.15;;;7.68;;
46290;SDS011;32023;44.444;26.006;2023-04-03T06:05:11;17.95;;;8.85;;
46290;SDS011;32023;44.444;26.006;2023-04-03T06:07:38;14.50;;;8.13;;
46290;SDS011;32023;44.444;26.006;2023-04-03T06:10:10;9.95;;;7.40;;
46290;SDS011;32023;44.444;26.006;2023-04-03T06:12:37;8.20;;;5.90;;
46290;SDS011;32023;44.444;26.006;2023-04-03T06:15:04;8.25;;;6.32;;
46290;SDS011;32023;44.444;26.006;2023-04-03T06:17:32;7.60;;;5.95;;
46290;SDS011;32023;44.444;26.006;2023-04-03T06:19:59;10.07;;;5.95;;
46290;SDS011;32023;44.444;26.006;2023-04-03T06:22:25;10.82;;;6.20;;
46290;SDS011;32023;44.444;26.006;2023-04-03T06:24:54;12.10;;;6.57;;
46290;SDS011;32023;44.444;26.006;2023-04-03T06:27:22;8.45;;;6.07;;
46290;SDS011;32023;44.444;26.006;2023-04-03T06:29:49;10.07;;;5.18;;
46290;SDS011;32023;44.444;26.006;2023-04-03T06:32:15;11.43;;;6.25;;
46290;SDS011;32023;44.444;26.006;2023-04-03T06:34:45;9.85;;;6.10;;
46290;SDS011;32023;44.444;26.006;2023-04-03T06:37:15;10.30;;;6.43;;
46290;SDS011;32023;44.444;26.006;2023-04-03T06:39:44;8.93;;;6.17;;
46290;SDS011;32023;44.444;26.006;2023-04-03T06:42:11;6.57;;;5.32;;
46290;SDS011;32023;44.444;26.006;2023-04-03T06:44:38;8.00;;;5.30;;
46290;SDS011;32023;44.444;26.006;2023-04-03T06:47:04;7.40;;;4.97;;
46290;SDS011;32023;44.444;26.006;2023-04-03T06:49:31;7.68;;;5.82;;
46290;SDS011;32023;44.444;26.006;2023-04-03T06:52:13;8.38;;;6.45;;
46290;SDS011;32023;44.444;26.006;2023-04-03T06:57:51;8.45;;;6.53;;
46290;SDS011;32023;44.444;26.006;2023-04-03T07:00:17;8.93;;;6.05;;
46290;SDS011;32023;44.444;26.006;2023-04-03T07:02:44;9.55;;;6.70;;
46290;SDS011;32023;44.444;26.006;2023-04-03T07:05:13;9.52;;;5.45;;
46290;SDS011;32023;44.444;26.006;2023-04-03T07:07:39;10.55;;;7.05;;
46290;SDS011;32023;44.444;26.006;2023-04-03T07:10:06;9.23;;;6.22;;
46290;SDS011;32023;44.444;26.006;2023-04-03T07:12:33;7.95;;;5.90;;
46290;SDS011;32023;44.444;26.006;2023-04-03T07:15:03;8.93;;;5.95;;
46290;SDS011;32023;44.444;26.006;2023-04-03T07:17:30;7.60;;;5.75;;
46290;SDS011;32023;44.444;26.006;2023-04-03T07:19:57;7.78;;;5.55;;
46290;SDS011;32023;44.444;26.006;2023-04-03T07:22:23;9.50;;;5.95;;
46290;SDS011;32023;44.444;26.006;2023-04-03T07:24:50;9.98;;;5.90;;
46290;SDS011;32023;44.444;26.006;2023-04-03T07:27:17;10.77;;;5.95;;
46290;SDS011;32023;44.444;26.006;2023-04-03T07:29:47;8.50;;;6.22;;
46290;SDS011;32023;44.444;26.006;2023-04-03T07:32:14;18.23;;;5.90;;
46290;SDS011;32023;44.444;26.006;2023-04-03T07:34:43;8.15;;;5.32;;
46290;SDS011;32023;44.444;26.006;2023-04-03T07:37:10;6.45;;;4.82;;
46290;SDS011;32023;44.444;26.006;2023-04-03T07:39:37;7.97;;;5.22;;
46290;SDS011;32023;44.444;26.006;2023-04-03T07:42:04;6.57;;;5.38;;
46290;SDS011;32023;44.444;26.006;2023-04-03T07:44:30;5.95;;;4.22;;
46290;SDS011;32023;44.444;26.006;2023-04-03T07:46:57;9.25;;;6.22;;
46290;SDS011;32023;44.444;26.006;2023-04-03T07:49:26;10.48;;;4.85;;
46290;SDS011;32023;44.444;26.006;2023-04-03T07:51:53;8.32;;;5.20;;
46290;SDS011;32023;44.444;26.006;2023-04-03T07:54:20;8.95;;;5.88;;
46290;SDS011;32023;44.444;26.006;2023-04-03T07:56:46;7.38;;;5.63;;
46290;SDS011;32023;44.444;26.006;2023-04-03T07:59:13;11.48;;;7.55;;
46290;SDS011;32023;44.444;26.006;2023-04-03T08:01:39;8.63;;;5.65;;
46290;SDS011;32023;44.444;26.006;2023-04-03T08:04:08;6.55;;;4.60;;
46290;SDS011;32023;44.444;26.006;2023-04-03T08:06:35;11.13;;;6.50;;
46290;SDS011;32023;44.444;26.006;2023-04-03T08:09:02;7.95;;;6.10;;
46290;SDS011;32023;44.444;26.006;2023-04-03T08:11:35;8.25;;;5.53;;
46290;SDS011;32023;44.444;26.006;2023-04-03T08:14:06;7.57;;;5.93;;
46290;SDS011;32023;44.444;26.006;2023-04-03T08:16:32;6.15;;;4.97;;
46290;SDS011;32023;44.444;26.006;2023-04-03T08:19:02;7.80;;;5.30;;
46290;SDS011;32023;44.444;26.006;2023-04-03T08:21:28;7.45;;;5.45;;
46290;SDS011;32023;44.444;26.006;2023-04-03T08:23:54;9.32;;;5.38;;
46290;SDS011;32023;44.444;26.006;2023-04-03T08:26:30;10.13;;;5.88;;
46290;SDS011;32023;44.444;26.006;2023-04-03T08:29:00;6.85;;;4.93;;
46290;SDS011;32023;44.444;26.006;2023-04-03T08:31:27;9.75;;;6.68;;
46290;SDS011;32023;44.444;26.006;2023-04-03T08:33:53;7.57;;;5.68;;
46290;SDS011;32023;44.444;26.006;2023-04-03T08:36:22;8.20;;;5.95;;
46290;SDS011;32023;44.444;26.006;2023-04-03T08:38:51;6.07;;;5.22;;
46290;SDS011;32023;44.444;26.006;2023-04-03T08:41:25;6.15;;;5.28;;
46290;SDS011;32023;44.444;26.006;2023-04-03T08:50:00;7.47;;;5.95;;
46290;SDS011;32023;44.444;26.006;2023-04-03T08:52:33;8.07;;;5.60;;
46290;SDS011;32023;44.444;26.006;2023-04-03T08:59:12;6.15;;;5.07;;
46290;SDS011;32023;44.444;26.006;2023-04-03T09:08:37;12.02;;;5.50;;
46290;SDS011;32023;44.444;26.006;2023-04-03T09:22:16;8.02;;;6.53;;
46290;SDS011;32023;44.444;26.006;2023-04-03T09:24:44;10.55;;;6.53;;
46290;SDS011;32023;44.444;26.006;2023-04-03T09:27:14;11.18;;;6.68;;
46290;SDS011;32023;44.444;26.006;2023-04-03T09:29:43;7.53;;;6.32;;
46290;SDS011;32023;44.444;26.006;2023-04-03T09:34:57;6.53;;;4.80;;
46290;SDS011;32023;44.444;26.006;2023-04-03T09:40:56;8.00;;;5.70;;
46290;SDS011;32023;44.444;26.006;2023-04-03T09:43:27;7.15;;;5.90;;
46290;SDS011;32023;44.444;26.006;2023-04-03T09:49:04;6.03;;;5.30;;
46290;SDS011;32023;44.444;26.006;2023-04-03T09:51:32;8.20;;;5.47;;
46290;SDS011;32023;44.444;26.006;2023-04-03T09:57:07;5.07;;;4.30;;
46290;SDS011;32023;44.444;26.006;2023-04-03T09:59:58;8.02;;;5.20;;
46290;SDS011;32023;44.444;26.006;2023-04-03T10:04:58;6.13;;;5.53;;
46290;SDS011;32023;44.444;26.006;2023-04-03T10:07:29;6.95;;;4.78;;
46290;SDS011;32023;44.444;26.006;2023-04-03T10:10:17;10.82;;;7.10;;
46290;SDS011;32023;44.444;26.006;2023-04-03T10:13:04;11.52;;;5.90;;
46290;SDS011;32023;44.444;26.006;2023-04-03T10:15:39;6.80;;;6.07;;
46290;SDS011;32023;44.444;26.006;2023-04-03T10:21:35;6.63;;;5.97;;
46290;SDS011;32023;44.444;26.006;2023-04-03T10:27:06;6.78;;;6.07;;
46290;SDS011;32023;44.444;26.006;2023-04-03T10:32:58;7.53;;;5.90;;
46290;SDS011;32023;44.444;26.006;2023-04-03T10:44:26;9.13;;;5.00;;
46290;SDS011;32023;44.444;26.006;2023-04-03T10:50:51;6.32;;;5.10;;
46290;SDS011;32023;44.444;26.006;2023-04-03T11:02:04;8.80;;;6.00;;
46290;SDS011;32023;44.444;26.006;2023-04-03T11:04:55;8.60;;;5.90;;
46290;SDS011;32023;44.444;26.006;2023-04-03T11:07:57;7.85;;;5.70;;
46290;SDS011;32023;44.444;26.006;2023-04-03T11:13:28;10.00;;;6.47;;
46290;SDS011;32023;44.444;26.006;2023-04-03T11:16:06;6.72;;;6.00;;
46290;SDS011;32023;44.444;26.006;2023-04-03T11:19:17;14.40;;;6.45;;
46290;SDS011;32023;44.444;26.006;2023-04-03T11:22:34;7.33;;;6.40;;
46290;SDS011;32023;44.444;26.006;2023-04-03T11:24:50;9.38;;;7.60;;
46290;SDS011;32023;44.444;26.006;2023-04-03T11:47:02;5.97;;;5.38;;
46290;SDS011;32023;44.444;26.006;2023-04-03T11:55:56;7.43;;;5.88;;
46290;SDS011;32023;44.444;26.006;2023-04-03T11:58:31;8.27;;;6.47;;
46290;SDS011;32023;44.444;26.006;2023-04-03T12:04:36;8.10;;;5.90;;
46290;SDS011;32023;44.444;26.006;2023-04-03T12:07:18;7.05;;;4.82;;
46290;SDS011;32023;44.444;26.006;2023-04-03T12:13:12;5.70;;;5.10;;
46290;SDS011;32023;44.444;26.006;2023-04-03T12:19:13;5.82;;;4.95;;
46290;SDS011;32023;44.444;26.006;2023-04-03T12:28:55;8.25;;;6.43;;
46290;SDS011;32023;44.444;26.006;2023-04-03T12:31:22;11.90;;;6.55;;
46290;SDS011;32023;44.444;26.006;2023-04-03T12:36:38;10.45;;;7.15;;
46290;SDS011;32023;44.444;26.006;2023-04-03T12:47:23;10.13;;;6.80;;
46290;SDS011;32023;44.444;26.006;2023-04-03T12:50:00;10.32;;;7.30;;
46290;SDS011;32023;44.444;26.006;2023-04-03T12:52:37;15.80;;;8.15;;
46290;SDS011;32023;44.444;26.006;2023-04-03T12:55:16;10.05;;;7.20;;
46290;SDS011;32023;44.444;26.006;2023-04-03T12:57:45;9.80;;;7.57;;
46290;SDS011;32023;44.444;26.006;2023-04-03T13:00:18;13.48;;;8.23;;
46290;SDS011;32023;44.444;26.006;2023-04-03T13:02:46;11.85;;;7.95;;
46290;SDS011;32023;44.444;26.006;2023-04-03T13:05:16;9.57;;;6.82;;
46290;SDS011;32023;44.444;26.006;2023-04-03T13:07:48;10.95;;;8.30;;
46290;SDS011;32023;44.444;26.006;2023-04-03T13:10:24;8.07;;;7.18;;
46290;SDS011;32023;44.444;26.006;2023-04-03T13:12:53;7.45;;;5.68;;
46290;SDS011;32023;44.444;26.006;2023-04-03T13:15:40;10.35;;;7.03;;
46290;SDS011;32023;44.444;26.006;2023-04-03T13:21:20;10.02;;;7.32;;
46290;SDS011;32023;44.444;26.006;2023-04-03T13:23:54;10.02;;;6.75;;
46290;SDS011;32023;44.444;26.006;2023-04-03T13:26:31;11.50;;;8.48;;
46290;SDS011;32023;44.444;26.006;2023-04-03T13:29:06;10.63;;;7.40;;
46290;SDS011;32023;44.444;26.006;2023-04-03T13:31:46;9.23;;;6.93;;
46290;SDS011;32023;44.444;26.006;2023-04-03T13:34:19;12.77;;;7.22;;
46290;SDS011;32023;44.444;26.006;2023-04-03T13:39:23;8.07;;;6.35;;
46290;SDS011;32023;44.444;26.006;2023-04-03T13:42:14;10.57;;;7.18;;
46290;SDS011;32023;44.444;26.006;2023-04-03T13:44:45;10.68;;;7.68;;
46290;SDS011;32023;44.444;26.006;2023-04-03T13:47:18;8.38;;;7.03;;
46290;SDS011;32023;44.444;26.006;2023-04-03T13:58:53;26.23;;;8.25;;
46290;SDS011;32023;44.444;26.006;2023-04-03T14:01:22;36.67;;;14.77;;
46290;SDS011;32023;44.444;26.006;2023-04-03T14:03:59;22.63;;;12.82;;
46290;SDS011;32023;44.444;26.006;2023-04-03T14:06:34;11.63;;;6.82;;
46290;SDS011;32023;44.444;26.006;2023-04-03T14:09:04;9.38;;;6.32;;
46290;SDS011;32023;44.444;26.006;2023-04-03T14:11:34;9.32;;;7.03;;
46290;SDS011;32023;44.444;26.006;2023-04-03T14:14:02;9.52;;;6.70;;
46290;SDS011;32023;44.444;26.006;2023-04-03T14:16:37;10.45;;;7.35;;
46290;SDS011;32023;44.444;26.006;2023-04-03T14:19:06;9.70;;;6.28;;
46290;SDS011;32023;44.444;26.006;2023-04-03T14:21:40;8.63;;;6.85;;
46290;SDS011;32023;44.444;26.006;2023-04-03T14:24:06;9.65;;;6.47;;
46290;SDS011;32023;44.444;26.006;2023-04-03T14:26:32;12.48;;;7.88;;
46290;SDS011;32023;44.444;26.006;2023-04-03T14:28:59;9.95;;;7.15;;
46290;SDS011;32023;44.444;26.006;2023-04-03T14:31:26;8.60;;;6.93;;
46290;SDS011;32023;44.444;26.006;2023-04-03T14:33:52;16.38;;;10.00;;
46290;SDS011;32023;44.444;26.006;2023-04-03T14:36:25;14.18;;;8.45;;
46290;SDS011;32023;44.444;26.006;2023-04-03T14:38:54;13.13;;;8.77;;
46290;SDS011;32023;44.444;26.006;2023-04-03T14:41:22;37.92;;;21.10;;
46290;SDS011;32023;44.444;26.006;2023-04-03T14:43:50;42.45;;;21.10;;
46290;SDS011;32023;44.444;26.006;2023-04-03T14:46:29;9.95;;;8.40;;
46290;SDS011;32023;44.444;26.006;2023-04-03T14:48:59;12.80;;;7.97;;
46290;SDS011;32023;44.444;26.006;2023-04-03T14:51:26;9.80;;;8.05;;
46290;SDS011;32023;44.444;26.006;2023-04-03T14:53:53;17.73;;;9.98;;
46290;SDS011;32023;44.444;26.006;2023-04-03T14:56:27;15.65;;;8.63;;
46290;SDS011;32023;44.444;26.006;2023-04-03T14:59:04;14.75;;;8.55;;
46290;SDS011;32023;44.444;26.006;2023-04-03T15:01:37;10.40;;;8.53;;
46290;SDS011;32023;44.444;26.006;2023-04-03T15:04:37;12.30;;;9.00;;
46290;SDS011;32023;44.444;26.006;2023-04-03T15:06:57;14.13;;;11.05;;
46290;SDS011;32023;44.444;26.006;2023-04-03T15:09:24;13.27;;;9.88;;
46290;SDS011;32023;44.444;26.006;2023-04-03T15:11:52;16.42;;;9.90;;
46290;SDS011;32023;44.444;26.006;2023-04-03T15:14:19;14.45;;;10.25;;
46290;SDS011;32023;44.444;26.006;2023-04-03T15:16:47;14.18;;;10.18;;
46290;SDS011;32023;44.444;26.006;2023-04-03T15:19:14;17.08;;;12.43;;
46290;SDS011;32023;44.444;26.006;2023-04-03T15:21:41;14.48;;;11.23;;
46290;SDS011;32023;44.444;26.006;2023-04-03T15:24:08;14.75;;;9.18;;
46290;SDS011;32023;44.444;26.006;2023-04-03T15:26:35;13.77;;;9.68;;
46290;SDS011;32023;44.444;26.006;2023-04-03T15:29:03;15.57;;;11.00;;
46290;SDS011;32023;44.444;26.006;2023-04-03T15:31:29;12.05;;;9.00;;
46290;SDS011;32023;44.444;26.006;2023-04-03T15:33:56;10.73;;;9.27;;
46290;SDS011;32023;44.444;26.006;2023-04-03T15:36:23;13.25;;;9.55;;
46290;SDS011;32023;44.444;26.006;2023-04-03T15:38:49;11.73;;;9.75;;
46290;SDS011;32023;44.444;26.006;2023-04-03T15:41:15;14.30;;;9.82;;
46290;SDS011;32023;44.444;26.006;2023-04-03T15:43:45;16.15;;;11.70;;
46290;SDS011;32023;44.444;26.006;2023-04-03T15:46:14;21.98;;;12.90;;
46290;SDS011;32023;44.444;26.006;2023-04-03T15:48:42;19.27;;;13.48;;
46290;SDS011;32023;44.444;26.006;2023-04-03T15:51:09;16.67;;;13.82;;
46290;SDS011;32023;44.444;26.006;2023-04-03T15:53:36;18.98;;;13.88;;
46290;SDS011;32023;44.444;26.006;2023-04-03T15:56:02;19.08;;;13.25;;
46290;SDS011;32023;44.444;26.006;2023-04-03T15:58:34;15.68;;;11.90;;
46290;SDS011;32023;44.444;26.006;2023-04-03T16:01:01;18.67;;;13.23;;
46290;SDS011;32023;44.444;26.006;2023-04-03T16:03:27;16.15;;;12.38;;
46290;SDS011;32023;44.444;26.006;2023-04-03T16:05:54;18.08;;;12.40;;
46290;SDS011;32023;44.444;26.006;2023-04-03T16:08:24;16.60;;;13.88;;
46290;SDS011;32023;44.444;26.006;2023-04-03T16:10:59;17.33;;;13.95;;
46290;SDS011;32023;44.444;26.006;2023-04-03T16:13:26;17.75;;;13.48;;
46290;SDS011;32023;44.444;26.006;2023-04-03T16:15:52;23.45;;;15.02;;
46290;SDS011;32023;44.444;26.006;2023-04-03T16:18:19;21.98;;;14.57;;
46290;SDS011;32023;44.444;26.006;2023-04-03T16:20:46;21.75;;;16.17;;
46290;SDS011;32023;44.444;26.006;2023-04-03T16:23:13;19.55;;;15.52;;
46290;SDS011;32023;44.444;26.006;2023-04-03T16:25:40;18.40;;;13.93;;
46290;SDS011;32023;44.444;26.006;2023-04-03T16:28:10;20.05;;;14.13;;
46290;SDS011;32023;44.444;26.006;2023-04-03T16:30:44;19.63;;;13.80;;
46290;SDS011;32023;44.444;26.006;2023-04-03T16:33:14;18.00;;;13.10;;
46290;SDS011;32023;44.444;26.006;2023-04-03T16:35:47;21.20;;;13.23;;
46290;SDS011;32023;44.444;26.006;2023-04-03T16:38:18;17.60;;;12.13;;
46290;SDS011;32023;44.444;26.006;2023-04-03T16:40:50;19.45;;;14.23;;
46290;SDS011;32023;44.444;26.006;2023-04-03T16:48:59;23.10;;;13.63;;
46290;SDS011;32023;44.444;26.006;2023-04-03T16:51:27;26.45;;;14.65;;
46290;SDS011;32023;44.444;26.006;2023-04-03T16:53:54;19.95;;;14.68;;
46290;SDS011;32023;44.444;26.006;2023-04-03T16:56:25;19.77;;;14.70;;
46290;SDS011;32023;44.444;26.006;2023-04-03T16:59:12;15.70;;;12.48;;
46290;SDS011;32023;44.444;26.006;2023-04-03T17:01:41;17.83;;;13.02;;
46290;SDS011;32023;44.444;26.006;2023-04-03T17:04:22;18.38;;;13.13;;
46290;SDS011;32023;44.444;26.006;2023-04-03T17:07:15;18.23;;;13.13;;
46290;SDS011;32023;44.444;26.006;2023-04-03T17:12:55;16.05;;;11.73;;
46290;SDS011;32023;44.444;26.006;2023-04-03T17:15:27;17.27;;;12.43;;
46290;SDS011;32023;44.444;26.006;2023-04-03T17:18:00;16.17;;;10.98;;
46290;SDS011;32023;44.444;26.006;2023-04-03T17:20:30;16.67;;;13.18;;
46290;SDS011;32023;44.444;26.006;2023-04-03T17:23:05;18.08;;;12.30;;
46290;SDS011;32023;44.444;26.006;2023-04-03T17:25:37;14.80;;;12.15;;
46290;SDS011;32023;44.444;26.006;2023-04-03T17:28:17;20.90;;;15.00;;
46290;SDS011;32023;44.444;26.006;2023-04-03T17:33:29;17.58;;;12.70;;
46290;SDS011;32023;44.444;26.006;2023-04-03T17:36:02;19.93;;;14.77;;
46290;SDS011;32023;44.444;26.006;2023-04-03T17:38:33;17.75;;;11.60;;